Time;durP1;ratioP1;P1;durP2;ratioP2;P2;SDS_P1;SDS_P2;PMS_P1;PMS_P2;Temp;Humidity;BMP_temperature;BMP_pressure;BME280_temperature;BME280_humidity;BME280_pressure;Samples;Min_cycle;Max_cycle;Signal;HPM_P1;HPM_P2
2022/11/22 00:00:50;;;;;;;;;;;6.90;95.30;;;;;;5064924;28;19912;-73
2022/11/22 00:03:16;;;;;;;;;;;6.80;95.30;;;;;;5065768;28;19923;-73
2022/11/22 00:05:41;;;;;;;;;;;6.90;95.30;;;;;;5065288;28;19917;-74
2022/11/22 00:08:07;;;;;;;;;;;6.80;95.30;;;;;;5064321;28;19912;-74
2022/11/22 00:10:32;;;;;;;;;;;6.90;95.40;;;;;;5065509;28;20543;-73
2022/11/22 00:12:58;;;;;;;;;;;6.90;95.30;;;;;;5064542;28;20354;-74
2022/11/22 00:15:24;;;;;;;;;;;6.90;95.30;;;;;;5076475;28;19916;-74
2022/11/22 00:17:50;;;;;;;;;;;6.90;95.30;;;;;;5072194;28;20537;-74
2022/11/22 00:20:16;;;;;;;;;;;6.90;95.40;;;;;;5065823;28;19913;-74
2022/11/22 00:22:42;;;;;;;;;;;6.90;95.40;;;;;;5066246;28;19916;-74
2022/11/22 00:25:07;;;;;;;;;;;6.90;95.40;;;;;;5064432;28;20435;-73
2022/11/22 00:27:33;;;;;;;;;;;6.90;95.30;;;;;;5064854;28;19995;-74
2022/11/22 00:29:59;;;;;;;;;;;6.90;95.40;;;;;;5074334;28;19912;-74
2022/11/22 00:32:24;;;;;;;;;;;6.90;95.40;;;;;;5069449;28;19912;-73
2022/11/22 00:34:50;;;;;;;;;;;6.90;95.40;;;;;;5068165;28;20325;-74
2022/11/22 00:37:15;;;;;;;;;;;6.90;95.40;;;;;;5061507;28;19908;-73
2022/11/22 00:39:41;;;;;;;;;;;6.90;95.40;;;;;;5047282;28;19913;-73
2022/11/22 00:42:06;;;;;;;;;;;6.90;95.40;;;;;;5047436;28;19913;-73
2022/11/22 00:44:32;;;;;;;;;;;6.90;95.40;;;;;;5084962;28;19959;-74
2022/11/22 00:46:57;;;;;;;;;;;6.90;95.40;;;;;;5088233;28;19918;-74
2022/11/22 00:49:23;;;;;;;;;;;6.90;95.40;;;;;;5088429;28;20543;-73
2022/11/22 00:51:48;;;;;;;;;;;6.90;95.40;;;;;;5088731;28;19912;-73
2022/11/22 00:54:14;;;;;;;;;;;6.90;95.40;;;;;;5071777;28;19916;-73
2022/11/22 00:56:39;;;;;;;;;;;6.90;95.40;;;;;;5070507;28;19919;-74
2022/11/22 00:59:05;;;;;;;;;;;6.90;95.40;;;;;;5049230;28;19913;-73
2022/11/22 01:01:30;;;;;;;;;;;6.90;95.40;;;;;;5065269;28;19947;-74
2022/11/22 01:03:55;;;;;;;;;;;6.90;95.40;;;;;;5068343;28;19942;-74
2022/11/22 01:06:21;;;;;;;;;;;6.90;95.40;;;;;;5068261;28;20026;-74
2022/11/22 01:08:47;;;;;;;;;;;6.90;95.40;;;;;;5048228;28;19909;-74
2022/11/22 01:11:14;;;;;;;;;;;6.90;95.40;;;;;;5056629;28;19924;-74
2022/11/22 01:13:40;;;;;;;;;;;6.90;95.40;;;;;;5079038;28;20027;-74
2022/11/22 01:16:06;;;;;;;;;;;6.90;95.40;;;;;;5068447;28;20418;-74
2022/11/22 01:18:32;;;;;;;;;;;6.90;95.40;;;;;;5067495;28;19913;-73
2022/11/22 01:20:57;;;;;;;;;;;6.90;95.40;;;;;;5067351;28;20003;-73
2022/11/22 01:23:23;;;;;;;;;;;6.90;95.40;;;;;;5067994;28;19919;-74
2022/11/22 01:25:48;;;;;;;;;;;6.90;95.40;;;;;;5075761;28;19920;-73
2022/11/22 01:28:14;;;;;;;;;;;6.90;95.40;;;;;;5086597;28;20035;-73
2022/11/22 01:30:41;;;;;;;;;;;6.90;95.40;;;;;;5072370;28;19955;-73
2022/11/22 01:33:07;;;;;;;;;;;6.90;95.40;;;;;;5067817;28;19916;-73
2022/11/22 01:35:32;;;;;;;;;;;6.90;95.40;;;;;;5067537;28;20699;-74
2022/11/22 01:37:57;;;;;;;;;;;6.90;95.40;;;;;;5053742;28;19920;-73
2022/11/22 01:40:23;;;;;;;;;;;6.90;95.40;;;;;;5072310;28;20033;-74
2022/11/22 01:42:53;;;;;;;;;;;6.90;95.40;;;;;;5082132;28;19919;-73
2022/11/22 01:45:27;;;;;;;;;;;6.90;95.40;;;;;;5067850;28;20046;-73
2022/11/22 01:47:53;;;;;;;;;;;6.90;95.40;;;;;;5068036;28;19920;-74
2022/11/22 01:50:19;;;;;;;;;;;6.90;95.40;;;;;;5065645;28;19912;-73
2022/11/22 01:52:44;;;;;;;;;;;6.90;95.40;;;;;;5067308;28;19912;-74
2022/11/22 01:55:11;;;;;;;;;;;6.90;95.50;;;;;;5064148;28;19962;-74
2022/11/22 01:57:37;;;;;;;;;;;6.90;95.40;;;;;;5047776;28;19923;-73
2022/11/22 02:00:08;;;;;;;;;;;6.90;95.40;;;;;;5052184;28;19919;-74
2022/11/22 02:02:34;;;;;;;;;;;6.90;95.50;;;;;;5065398;28;19920;-73
2022/11/22 02:05:02;;;;;;;;;;;6.90;95.50;;;;;;5067204;28;19916;-73
2022/11/22 02:07:48;;;;;;;;;;;6.90;95.50;;;;;;5062805;28;19919;-73
2022/11/22 02:10:15;;;;;;;;;;;6.90;95.50;;;;;;5086648;28;19923;-74
2022/11/22 02:12:41;;;;;;;;;;;6.90;95.40;;;;;;5086170;28;20314;-73
2022/11/22 02:15:07;;;;;;;;;;;6.90;95.50;;;;;;5086899;28;19912;-74
2022/11/22 02:17:33;;;;;;;;;;;6.90;95.50;;;;;;5077998;28;19919;-74
2022/11/22 02:19:58;;;;;;;;;;;6.90;95.40;;;;;;5066275;28;19986;-74
2022/11/22 02:22:42;;;;;;;;;;;6.90;95.40;;;;;;5075435;28;19916;-73
2022/11/22 02:25:34;;;;;;;;;;;6.90;95.40;;;;;;5067545;28;20503;-73
2022/11/22 02:27:59;;;;;;;;;;;6.90;95.50;;;;;;5052944;28;19958;-74
2022/11/22 02:30:25;;;;;;;;;;;6.90;95.50;;;;;;5054889;28;19916;-75
2022/11/22 02:32:50;;;;;;;;;;;6.90;95.50;;;;;;5073888;28;19923;-74
2022/11/22 02:35:27;;;;;;;;;;;6.90;95.50;;;;;;5084979;28;20666;-74
2022/11/22 02:37:57;;;;;;;;;;;6.90;95.60;;;;;;5072438;28;19919;-74
2022/11/22 02:40:24;;;;;;;;;;;6.90;95.50;;;;;;5066305;28;20639;-73
2022/11/22 02:42:53;;;;;;;;;;;6.90;95.50;;;;;;5066822;28;19913;-74
2022/11/22 02:45:18;;;;;;;;;;;6.90;95.60;;;;;;5066158;28;19916;-74
2022/11/22 02:47:43;;;;;;;;;;;6.90;95.50;;;;;;5082303;28;19926;-73
2022/11/22 02:50:09;;;;;;;;;;;7.00;95.50;;;;;;5085418;28;19918;-73
2022/11/22 02:52:34;;;;;;;;;;;7.00;95.50;;;;;;5086013;28;19916;-73
2022/11/22 02:55:00;;;;;;;;;;;6.90;95.60;;;;;;5068371;28;19923;-74
2022/11/22 02:57:25;;;;;;;;;;;7.00;95.70;;;;;;5046008;28;19927;-74
2022/11/22 02:59:51;;;;;;;;;;;7.00;95.60;;;;;;5050176;28;19927;-74
2022/11/22 03:02:16;;;;;;;;;;;6.90;95.50;;;;;;5065992;28;19913;-73
2022/11/22 03:04:42;;;;;;;;;;;7.00;95.60;;;;;;5066933;28;20324;-73
2022/11/22 03:07:07;;;;;;;;;;;6.90;95.60;;;;;;5058319;28;19920;-73
2022/11/22 03:09:33;;;;;;;;;;;6.90;95.60;;;;;;5044716;28;19958;-73
2022/11/22 03:11:58;;;;;;;;;;;6.90;95.60;;;;;;5045581;28;19931;-73
2022/11/22 03:14:24;;;;;;;;;;;6.90;95.60;;;;;;5045450;28;19913;-73
2022/11/22 03:16:49;;;;;;;;;;;6.90;95.60;;;;;;5045840;28;19974;-73
2022/11/22 03:19:15;;;;;;;;;;;6.90;95.60;;;;;;5049891;28;19919;-73
2022/11/22 03:21:41;;;;;;;;;;;6.90;95.60;;;;;;5085593;28;19912;-73
2022/11/22 03:24:07;;;;;;;;;;;6.90;95.50;;;;;;5082757;28;20711;-74
2022/11/22 03:26:33;;;;;;;;;;;6.90;95.50;;;;;;5045269;28;19917;-73
2022/11/22 03:28:59;;;;;;;;;;;6.90;95.60;;;;;;5045394;28;19913;-73
2022/11/22 03:31:24;;;;;;;;;;;6.90;95.60;;;;;;5062249;28;19919;-73
2022/11/22 03:33:50;;;;;;;;;;;7.00;95.60;;;;;;5066265;28;20677;-73
2022/11/22 03:36:15;;;;;;;;;;;6.90;95.60;;;;;;5072828;28;19923;-73
2022/11/22 03:38:41;;;;;;;;;;;6.90;95.60;;;;;;5066263;28;19920;-74
2022/11/22 03:41:06;;;;;;;;;;;6.90;95.60;;;;;;5064729;28;19919;-73
2022/11/22 03:43:32;;;;;;;;;;;6.90;95.60;;;;;;5065445;28;19912;-74
2022/11/22 03:45:57;;;;;;;;;;;6.90;95.60;;;;;;5064015;28;19994;-74
2022/11/22 03:48:23;;;;;;;;;;;6.90;95.60;;;;;;5065572;28;19912;-73
2022/11/22 03:50:48;;;;;;;;;;;6.90;95.60;;;;;;5064584;28;19951;-74
2022/11/22 03:53:14;;;;;;;;;;;6.90;95.60;;;;;;5075384;28;20258;-74
2022/11/22 03:55:39;;;;;;;;;;;6.90;95.70;;;;;;5057613;28;19916;-73
2022/11/22 03:58:05;;;;;;;;;;;6.90;95.60;;;;;;5045221;28;19915;-73
2022/11/22 04:00:31;;;;;;;;;;;6.80;95.60;;;;;;5054147;28;19916;-74
2022/11/22 04:02:56;;;;;;;;;;;6.80;95.60;;;;;;5065058;28;19912;-73
2022/11/22 04:05:22;;;;;;;;;;;6.80;95.60;;;;;;5066466;28;20328;-73
2022/11/22 04:07:47;;;;;;;;;;;6.80;95.60;;;;;;5068562;28;19916;-73
2022/11/22 04:10:13;;;;;;;;;;;6.80;95.60;;;;;;5067823;28;20015;-73
2022/11/22 04:12:39;;;;;;;;;;;6.80;95.60;;;;;;5069035;28;19920;-73
2022/11/22 04:15:08;;;;;;;;;;;6.80;95.70;;;;;;5068893;28;19912;-74
2022/11/22 04:17:43;;;;;;;;;;;6.80;95.70;;;;;;5068203;28;20001;-73
2022/11/22 04:23:09;;;;;;;;;;;6.80;95.70;;;;;;5069298;28;20322;-73
2022/11/22 04:25:36;;;;;;;;;;;6.80;95.70;;;;;;5065602;28;19958;-73
2022/11/22 04:28:03;;;;;;;;;;;6.70;95.70;;;;;;5066423;28;19931;-73
2022/11/22 04:33:13;;;;;;;;;;;6.80;95.70;;;;;;5061253;28;20592;-73
2022/11/22 04:35:39;;;;;;;;;;;6.80;95.70;;;;;;5062654;28;19917;-73
2022/11/22 04:38:04;;;;;;;;;;;6.70;95.70;;;;;;5057690;28;19924;-74
2022/11/22 04:40:30;;;;;;;;;;;6.70;95.70;;;;;;5067823;28;20631;-73
2022/11/22 04:45:40;;;;;;;;;;;6.70;95.70;;;;;;5068391;28;20021;-73
2022/11/22 04:48:05;;;;;;;;;;;6.70;95.70;;;;;;5071673;28;19954;-73
2022/11/22 04:53:15;;;;;;;;;;;6.70;95.70;;;;;;5088418;28;19919;-74
2022/11/22 04:55:42;;;;;;;;;;;6.70;95.80;;;;;;5059879;28;19912;-73
2022/11/22 04:58:08;;;;;;;;;;;6.70;95.80;;;;;;5053149;28;19916;-73
2022/11/22 05:00:33;;;;;;;;;;;6.70;95.70;;;;;;5075791;28;19916;-74
2022/11/22 05:02:59;;;;;;;;;;;6.70;95.70;;;;;;5088200;28;20027;-73
2022/11/22 05:05:25;;;;;;;;;;;6.70;95.70;;;;;;5088293;28;19955;-74
2022/11/22 05:07:50;;;;;;;;;;;6.60;95.80;;;;;;5076193;28;20017;-74
2022/11/22 05:10:15;;;;;;;;;;;6.60;95.70;;;;;;5066840;28;19912;-74
2022/11/22 05:12:41;;;;;;;;;;;6.60;95.80;;;;;;5068313;28;19926;-73
2022/11/22 05:15:10;;;;;;;;;;;6.60;95.70;;;;;;5073702;28;20403;-74
2022/11/22 05:17:36;;;;;;;;;;;6.60;95.70;;;;;;5087049;28;19916;-73
2022/11/22 05:20:03;;;;;;;;;;;6.60;95.70;;;;;;5087601;28;19919;-73
2022/11/22 05:25:12;;;;;;;;;;;6.60;95.70;;;;;;5073947;28;19928;-75
2022/11/22 05:27:38;;;;;;;;;;;6.60;95.70;;;;;;5066367;28;19916;-74
2022/11/22 05:30:04;;;;;;;;;;;6.50;95.70;;;;;;5065402;28;19942;-75
2022/11/22 05:32:30;;;;;;;;;;;6.50;95.70;;;;;;5067498;28;19916;-73
2022/11/22 05:34:55;;;;;;;;;;;6.60;95.70;;;;;;5067141;28;19908;-73
2022/11/22 05:37:21;;;;;;;;;;;6.50;95.70;;;;;;5059656;28;20414;-73
2022/11/22 05:39:47;;;;;;;;;;;6.50;95.70;;;;;;5047452;28;19920;-73
2022/11/22 05:42:12;;;;;;;;;;;6.50;95.80;;;;;;5047753;28;19959;-73
2022/11/22 05:44:38;;;;;;;;;;;6.50;95.80;;;;;;5066944;28;19950;-73
2022/11/22 05:47:04;;;;;;;;;;;6.50;95.70;;;;;;5065326;28;19965;-73
2022/11/22 05:49:29;;;;;;;;;;;6.50;95.80;;;;;;5083391;28;20635;-73
2022/11/22 05:51:55;;;;;;;;;;;6.50;95.80;;;;;;5086591;28;19912;-73
2022/11/22 05:54:20;;;;;;;;;;;6.50;95.80;;;;;;5086050;28;19912;-73
2022/11/22 05:56:47;;;;;;;;;;;6.50;95.70;;;;;;5066982;28;19944;-73
2022/11/22 05:59:13;;;;;;;;;;;6.50;95.70;;;;;;5059571;28;19913;-73
2022/11/22 06:01:39;;;;;;;;;;;6.50;95.70;;;;;;5066375;28;19962;-73
2022/11/22 06:04:04;;;;;;;;;;;6.50;95.80;;;;;;5067759;28;19916;-73
2022/11/22 06:06:30;;;;;;;;;;;6.50;95.80;;;;;;5065696;28;19928;-73
2022/11/22 06:08:55;;;;;;;;;;;6.50;95.80;;;;;;5047104;28;20515;-74
2022/11/22 06:11:21;;;;;;;;;;;6.50;95.70;;;;;;5046757;28;19928;-73
2022/11/22 06:13:48;;;;;;;;;;;6.50;95.70;;;;;;5046498;28;19909;-73
2022/11/22 06:16:14;;;;;;;;;;;6.50;95.80;;;;;;5046693;28;19912;-73
2022/11/22 06:18:39;;;;;;;;;;;6.50;95.80;;;;;;5046421;28;19920;-73
2022/11/22 06:21:06;;;;;;;;;;;6.50;95.80;;;;;;5051243;28;19916;-73
2022/11/22 06:23:32;;;;;;;;;;;6.40;95.80;;;;;;5066325;28;20026;-73
2022/11/22 06:26:02;;;;;;;;;;;6.40;95.70;;;;;;5066110;28;19924;-74
2022/11/22 06:28:28;;;;;;;;;;;6.50;95.70;;;;;;5066454;28;19915;-73
2022/11/22 06:30:59;;;;;;;;;;;6.50;96.00;;;;;;5065287;28;19919;-73
2022/11/22 06:33:24;;;;;;;;;;;6.40;95.70;;;;;;5066454;28;19913;-73
2022/11/22 06:35:50;;;;;;;;;;;6.40;95.70;;;;;;5066449;28;20365;-73
2022/11/22 06:38:15;;;;;;;;;;;6.40;95.70;;;;;;5077495;28;19916;-74
2022/11/22 06:40:41;;;;;;;;;;;6.40;95.70;;;;;;5086091;28;20368;-73
2022/11/22 06:43:06;;;;;;;;;;;6.40;95.70;;;;;;5078987;28;19913;-74
2022/11/22 06:45:32;;;;;;;;;;;6.40;95.70;;;;;;5065854;28;19924;-73
2022/11/22 06:47:57;;;;;;;;;;;6.40;95.70;;;;;;5066007;28;19913;-73
2022/11/22 06:50:23;;;;;;;;;;;6.40;95.70;;;;;;5065906;28;20003;-73
2022/11/22 06:52:52;;;;;;;;;;;6.40;95.70;;;;;;5066085;28;20575;-73
2022/11/22 06:55:17;;;;;;;;;;;6.40;95.70;;;;;;5066756;28;20030;-74
2022/11/22 06:57:43;;;;;;;;;;;6.30;95.60;;;;;;5065878;28;20015;-73
2022/11/22 07:00:09;;;;;;;;;;;6.40;95.70;;;;;;5065455;28;19916;-73
2022/11/22 07:02:34;;;;;;;;;;;6.40;95.70;;;;;;5065717;28;20371;-73
2022/11/22 07:05:00;;;;;;;;;;;6.30;95.70;;;;;;5065819;28;19924;-73
2022/11/22 07:07:25;;;;;;;;;;;6.30;95.70;;;;;;5065819;28;19912;-73
2022/11/22 07:09:51;;;;;;;;;;;6.30;95.70;;;;;;5065404;28;19920;-73
2022/11/22 07:12:16;;;;;;;;;;;6.30;95.70;;;;;;5065433;28;19944;-73
2022/11/22 07:14:42;;;;;;;;;;;6.30;95.70;;;;;;5065981;28;19983;-73
2022/11/22 07:17:07;;;;;;;;;;;6.30;95.70;;;;;;5065726;28;19952;-73
2022/11/22 07:19:33;;;;;;;;;;;6.30;95.70;;;;;;5064092;28;19913;-73
2022/11/22 07:21:58;;;;;;;;;;;6.30;95.70;;;;;;5065625;28;19923;-74
2022/11/22 07:24:24;;;;;;;;;;;6.30;95.70;;;;;;5065158;28;20011;-73
2022/11/22 07:26:49;;;;;;;;;;;6.30;95.60;;;;;;5065713;28;19917;-74
2022/11/22 07:29:15;;;;;;;;;;;6.30;95.70;;;;;;5066776;28;20038;-73
2022/11/22 07:31:43;;;;;;;;;;;6.30;95.60;;;;;;5064956;28;19917;-74
2022/11/22 07:34:09;;;;;;;;;;;6.30;95.70;;;;;;5065626;28;19912;-73
2022/11/22 07:36:34;;;;;;;;;;;6.30;95.60;;;;;;5065358;28;19913;-73
2022/11/22 07:39:01;;;;;;;;;;;6.30;95.60;;;;;;5065126;28;19916;-73
2022/11/22 07:41:26;;;;;;;;;;;6.30;95.60;;;;;;5063626;28;19916;-73
2022/11/22 07:43:52;;;;;;;;;;;6.30;95.60;;;;;;5066572;28;20391;-73
2022/11/22 07:46:22;;;;;;;;;;;6.30;95.60;;;;;;5065436;28;19921;-73
2022/11/22 07:48:48;;;;;;;;;;;6.20;95.50;;;;;;5065408;28;20639;-73
2022/11/22 07:51:14;;;;;;;;;;;6.30;95.60;;;;;;5063732;28;20374;-73
2022/11/22 07:53:39;;;;;;;;;;;6.30;95.60;;;;;;5064832;28;19913;-73
2022/11/22 07:56:05;;;;;;;;;;;6.30;95.60;;;;;;5065111;28;20019;-73
2022/11/22 07:58:31;;;;;;;;;;;6.30;95.50;;;;;;5069074;28;19920;-73
2022/11/22 08:00:56;;;;;;;;;;;6.20;95.50;;;;;;5071895;28;19913;-73
2022/11/22 08:03:21;;;;;;;;;;;6.30;95.60;;;;;;5065267;28;20261;-73
2022/11/22 08:05:47;;;;;;;;;;;6.30;95.60;;;;;;5064961;28;20026;-73
2022/11/22 08:08:12;;;;;;;;;;;6.30;95.50;;;;;;5049981;28;19920;-73
2022/11/22 08:10:38;;;;;;;;;;;6.30;95.50;;;;;;5044073;28;20025;-73
2022/11/22 08:13:05;;;;;;;;;;;6.30;95.50;;;;;;5043821;28;19917;-73
2022/11/22 08:15:30;;;;;;;;;;;6.30;95.50;;;;;;5059647;28;19920;-73
2022/11/22 08:17:56;;;;;;;;;;;6.30;95.50;;;;;;5085127;28;19912;-73
2022/11/22 08:20:21;;;;;;;;;;;6.30;95.50;;;;;;5083538;28;20380;-73
2022/11/22 08:22:47;;;;;;;;;;;6.30;95.50;;;;;;5085214;28;19912;-73
2022/11/22 08:25:12;;;;;;;;;;;6.30;95.50;;;;;;5075870;28;19924;-74
2022/11/22 08:27:39;;;;;;;;;;;6.30;95.50;;;;;;5064473;28;20272;-73
2022/11/22 08:30:04;;;;;;;;;;;6.30;95.50;;;;;;5064274;28;19919;-74
2022/11/22 08:32:30;;;;;;;;;;;6.30;95.50;;;;;;5074430;28;19920;-73
2022/11/22 08:34:55;;;;;;;;;;;6.30;95.40;;;;;;5085248;28;19916;-73
2022/11/22 08:37:21;;;;;;;;;;;6.30;95.50;;;;;;5077258;28;19915;-73
2022/11/22 08:39:46;;;;;;;;;;;6.30;95.40;;;;;;5064757;28;19939;-73
2022/11/22 08:42:12;;;;;;;;;;;6.30;95.40;;;;;;5064980;28;19920;-73
2022/11/22 08:44:37;;;;;;;;;;;6.40;95.40;;;;;;5064215;28;19920;-73
2022/11/22 08:47:02;;;;;;;;;;;6.40;95.40;;;;;;5063268;28;20002;-73
2022/11/22 08:49:28;;;;;;;;;;;6.30;95.40;;;;;;5077832;28;19969;-73
2022/11/22 08:51:53;;;;;;;;;;;6.40;95.40;;;;;;5085483;28;20607;-74
2022/11/22 08:54:19;;;;;;;;;;;6.30;95.40;;;;;;5087359;28;19912;-73
2022/11/22 08:56:44;;;;;;;;;;;6.40;95.40;;;;;;5068267;28;20281;-73
2022/11/22 08:59:10;;;;;;;;;;;6.30;95.40;;;;;;5068162;28;19919;-74
2022/11/22 09:01:35;;;;;;;;;;;6.40;95.50;;;;;;5067738;28;20545;-73
2022/11/22 09:04:01;;;;;;;;;;;6.40;95.40;;;;;;5066866;28;19912;-73
2022/11/22 09:06:26;;;;;;;;;;;6.40;95.40;;;;;;5067758;28;20258;-73
2022/11/22 09:08:52;;;;;;;;;;;6.40;95.40;;;;;;5048157;28;19917;-73
2022/11/22 09:11:18;;;;;;;;;;;6.40;95.40;;;;;;5046311;28;19986;-73
2022/11/22 09:13:44;;;;;;;;;;;6.40;95.40;;;;;;5047874;28;19912;-73
2022/11/22 09:16:14;;;;;;;;;;;6.40;95.40;;;;;;5048256;28;19913;-73
2022/11/22 09:18:40;;;;;;;;;;;6.40;95.30;;;;;;5047961;28;19913;-73
2022/11/22 09:21:06;;;;;;;;;;;6.40;95.40;;;;;;5080508;28;19908;-74
2022/11/22 09:23:32;;;;;;;;;;;6.40;95.40;;;;;;5087112;28;20384;-73
2022/11/22 09:25:57;;;;;;;;;;;6.40;95.30;;;;;;5072775;28;19916;-74
2022/11/22 09:28:23;;;;;;;;;;;6.50;95.30;;;;;;5067327;28;20028;-73
2022/11/22 09:30:48;;;;;;;;;;;6.50;95.40;;;;;;5067205;28;19913;-74
2022/11/22 09:33:14;;;;;;;;;;;6.50;95.40;;;;;;5067774;28;19919;-74
2022/11/22 09:35:39;;;;;;;;;;;6.50;95.30;;;;;;5067685;28;19912;-74
2022/11/22 09:38:07;;;;;;;;;;;6.50;95.30;;;;;;5070157;28;19920;-74
2022/11/22 09:40:33;;;;;;;;;;;6.50;95.20;;;;;;5087426;28;19999;-74
2022/11/22 09:43:10;;;;;;;;;;;6.50;95.20;;;;;;5086941;28;19930;-73
2022/11/22 09:45:35;;;;;;;;;;;6.60;95.20;;;;;;5087657;28;19961;-73
2022/11/22 09:48:01;;;;;;;;;;;6.60;95.10;;;;;;5087447;28;20004;-74
2022/11/22 09:50:30;;;;;;;;;;;6.60;95.10;;;;;;5087052;28;20356;-74
2022/11/22 09:53:01;;;;;;;;;;;6.60;95.10;;;;;;5087351;28;19947;-73
2022/11/22 09:55:31;;;;;;;;;;;6.70;95.10;;;;;;5076001;28;19913;-74
2022/11/22 09:58:09;;;;;;;;;;;6.70;95.10;;;;;;5057657;28;19920;-74
2022/11/22 10:00:34;;;;;;;;;;;6.70;95.00;;;;;;5057186;28;20661;-73
2022/11/22 10:03:19;;;;;;;;;;;6.70;95.00;;;;;;5066639;28;19999;-73
2022/11/22 10:05:47;;;;;;;;;;;6.70;95.00;;;;;;5066858;28;19923;-73
2022/11/22 10:08:23;;;;;;;;;;;6.70;95.00;;;;;;5052046;28;19912;-73
2022/11/22 10:10:50;;;;;;;;;;;6.80;95.00;;;;;;5046591;28;19921;-73
2022/11/22 10:13:18;;;;;;;;;;;6.80;95.00;;;;;;5051853;28;20619;-73
2022/11/22 10:15:46;;;;;;;;;;;6.80;95.00;;;;;;5086760;28;20522;-74
2022/11/22 10:18:19;;;;;;;;;;;6.80;95.00;;;;;;5086930;28;20284;-74
2022/11/22 10:20:45;;;;;;;;;;;6.80;95.00;;;;;;5084684;28;19912;-73
2022/11/22 10:23:20;;;;;;;;;;;6.80;94.90;;;;;;5066267;28;20264;-74
2022/11/22 10:25:50;;;;;;;;;;;6.90;94.90;;;;;;5066605;28;19916;-73
2022/11/22 10:28:17;;;;;;;;;;;6.90;94.80;;;;;;5066414;28;19912;-74
2022/11/22 10:30:47;;;;;;;;;;;7.00;94.80;;;;;;5067411;28;19916;-74
2022/11/22 10:33:19;;;;;;;;;;;6.90;94.90;;;;;;5066208;28;19913;-74
2022/11/22 10:36:03;;;;;;;;;;;7.00;94.90;;;;;;5066305;28;20049;-74
2022/11/22 10:38:47;;;;;;;;;;;7.00;94.80;;;;;;5048988;28;19945;-73
2022/11/22 10:41:15;;;;;;;;;;;7.10;94.80;;;;;;5045719;28;20023;-74
2022/11/22 10:43:46;;;;;;;;;;;7.10;94.80;;;;;;5057915;28;19977;-74
2022/11/22 10:46:16;;;;;;;;;;;7.10;94.80;;;;;;5067253;28;19920;-74
2022/11/22 10:48:51;;;;;;;;;;;7.10;94.80;;;;;;5065915;28;19978;-74
2022/11/22 10:51:20;;;;;;;;;;;7.20;94.90;;;;;;5065835;28;20579;-74
2022/11/22 10:54:04;;;;;;;;;;;7.10;94.80;;;;;;5066222;28;19919;-74
2022/11/22 10:56:37;;;;;;;;;;;7.20;94.80;;;;;;5066244;28;19913;-74
2022/11/22 10:59:21;;;;;;;;;;;7.20;94.70;;;;;;5066047;28;19919;-74
2022/11/22 11:02:00;;;;;;;;;;;7.20;94.80;;;;;;5046029;28;19913;-73
2022/11/22 11:04:34;;;;;;;;;;;7.30;94.80;;;;;;5045895;28;20003;-74
2022/11/22 11:07:00;;;;;;;;;;;7.30;94.70;;;;;;5050756;28;19917;-74
2022/11/22 11:09:32;;;;;;;;;;;7.30;94.70;;;;;;5065821;28;19993;-73
2022/11/22 11:11:58;;;;;;;;;;;7.30;94.70;;;;;;5065837;28;20392;-74
2022/11/22 11:14:26;;;;;;;;;;;7.40;94.70;;;;;;5064814;28;19974;-73
2022/11/22 11:16:52;;;;;;;;;;;7.30;94.60;;;;;;5065828;28;19913;-74
2022/11/22 11:19:27;;;;;;;;;;;7.30;95.00;;;;;;5073889;28;19923;-73
2022/11/22 11:22:21;;;;;;;;;;;7.30;94.70;;;;;;5085904;28;19912;-73
2022/11/22 11:24:47;;;;;;;;;;;7.30;94.80;;;;;;5075674;28;19965;-73
2022/11/22 11:27:14;;;;;;;;;;;7.40;94.70;;;;;;5065218;28;19912;-73
2022/11/22 11:29:49;;;;;;;;;;;7.30;94.80;;;;;;5065210;28;19916;-74
2022/11/22 11:32:15;;;;;;;;;;;7.40;94.80;;;;;;5065259;28;19912;-74
2022/11/22 11:34:45;;;;;;;;;;;7.40;94.80;;;;;;5065322;28;19916;-74
2022/11/22 11:37:21;;;;;;;;;;;7.40;94.80;;;;;;5075912;28;19917;-74
2022/11/22 11:39:46;;;;;;;;;;;7.40;94.80;;;;;;5065040;28;19970;-74
2022/11/22 11:42:25;;;;;;;;;;;7.40;94.80;;;;;;5065506;28;19912;-74
2022/11/22 11:44:51;;;;;;;;;;;7.40;94.80;;;;;;5065498;28;19916;-74
2022/11/22 11:47:18;;;;;;;;;;;7.40;94.80;;;;;;5065156;28;19980;-74
2022/11/22 11:49:49;;;;;;;;;;;7.50;94.70;;;;;;5065291;28;20481;-73
2022/11/22 11:52:24;;;;;;;;;;;7.50;94.70;;;;;;5067314;28;19923;-74
2022/11/22 11:54:54;;;;;;;;;;;7.50;94.70;;;;;;5079679;28;19916;-73
2022/11/22 11:57:35;;;;;;;;;;;7.50;94.70;;;;;;5065022;28;19913;-73
2022/11/22 12:00:02;;;;;;;;;;;7.50;94.70;;;;;;5061432;28;20019;-74
2022/11/22 12:02:37;;;;;;;;;;;7.60;94.60;;;;;;5064947;28;19999;-73
2022/11/22 12:05:12;;;;;;;;;;;7.60;94.70;;;;;;5065155;28;19969;-74
2022/11/22 12:07:39;;;;;;;;;;;7.60;94.70;;;;;;5065104;28;19962;-74
2022/11/22 12:10:23;;;;;;;;;;;7.60;94.60;;;;;;5077457;28;19916;-74
2022/11/22 12:12:51;;;;;;;;;;;7.60;94.70;;;;;;5064308;28;19921;-73
2022/11/22 12:15:35;;;;;;;;;;;7.60;94.70;;;;;;5064802;28;19913;-73
2022/11/22 12:18:19;;;;;;;;;;;7.60;94.70;;;;;;5064775;28;20015;-74
2022/11/22 12:20:54;;;;;;;;;;;7.60;94.70;;;;;;5064714;28;19920;-75
2022/11/22 12:23:23;;;;;;;;;;;7.70;94.70;;;;;;5064721;28;19919;-75
2022/11/22 12:25:49;;;;;;;;;;;7.70;94.70;;;;;;5071364;28;19928;-74
2022/11/22 12:28:19;;;;;;;;;;;7.70;94.60;;;;;;5062360;28;19912;-74
2022/11/22 12:30:48;;;;;;;;;;;7.80;94.50;;;;;;5059068;28;19916;-74
2022/11/22 12:33:19;;;;;;;;;;;7.80;94.50;;;;;;5068841;28;20737;-74
2022/11/22 12:35:46;;;;;;;;;;;7.90;94.40;;;;;;5068704;28;19919;-74
2022/11/22 12:38:15;;;;;;;;;;;8.00;94.30;;;;;;5068607;28;19951;-74
2022/11/22 12:40:41;;;;;;;;;;;8.00;94.20;;;;;;5068391;28;20011;-74
2022/11/22 12:43:10;;;;;;;;;;;8.00;94.20;;;;;;5068159;28;20031;-74
2022/11/22 12:45:41;;;;;;;;;;;8.00;94.30;;;;;;5068298;28;20354;-74
2022/11/22 12:48:17;;;;;;;;;;;8.10;94.20;;;;;;5057990;28;19925;-74
2022/11/22 12:50:44;;;;;;;;;;;8.10;94.30;;;;;;5076293;28;20353;-74
2022/11/22 12:53:31;;;;;;;;;;;8.10;94.20;;;;;;5066766;28;19985;-74
2022/11/22 12:56:09;;;;;;;;;;;8.10;94.20;;;;;;5068346;28;19939;-73
2022/11/22 12:58:43;;;;;;;;;;;8.20;94.20;;;;;;5067447;28;20003;-73
2022/11/22 13:01:16;;;;;;;;;;;8.20;94.20;;;;;;5071597;28;19954;-74
2022/11/22 13:03:52;;;;;;;;;;;8.20;94.20;;;;;;5066538;28;19915;-74
2022/11/22 13:06:20;;;;;;;;;;;8.20;94.30;;;;;;5068291;28;19916;-74
2022/11/22 13:08:46;;;;;;;;;;;8.20;94.30;;;;;;5048774;28;20321;-73
2022/11/22 13:11:18;;;;;;;;;;;8.20;94.30;;;;;;5047562;28;19916;-74
2022/11/22 13:13:45;;;;;;;;;;;8.20;94.30;;;;;;5047823;28;20533;-74
2022/11/22 13:16:11;;;;;;;;;;;8.20;94.30;;;;;;5060975;28;20568;-74
2022/11/22 13:18:39;;;;;;;;;;;8.20;94.40;;;;;;5082248;28;19912;-74
2022/11/22 13:21:10;;;;;;;;;;;8.20;94.30;;;;;;5087205;28;20637;-74
2022/11/22 13:23:35;;;;;;;;;;;8.20;94.30;;;;;;5085608;28;19965;-74
2022/11/22 13:26:00;;;;;;;;;;;8.20;94.30;;;;;;5067556;28;19920;-74
2022/11/22 13:28:31;;;;;;;;;;;8.20;94.40;;;;;;5067580;28;19924;-74
2022/11/22 13:31:04;;;;;;;;;;;8.20;94.40;;;;;;5067142;28;19913;-73
2022/11/22 13:33:30;;;;;;;;;;;8.20;94.40;;;;;;5068763;28;19927;-74
2022/11/22 13:36:14;;;;;;;;;;;8.20;94.30;;;;;;5067452;28;19912;-74
2022/11/22 13:38:41;;;;;;;;;;;8.20;94.40;;;;;;5047465;28;19920;-73
2022/11/22 13:41:21;;;;;;;;;;;8.20;94.30;;;;;;5047091;28;19912;-74
2022/11/22 13:43:52;;;;;;;;;;;8.20;94.40;;;;;;5059189;28;19916;-75
2022/11/22 13:46:37;;;;;;;;;;;8.20;94.30;;;;;;5066989;28;19927;-74
2022/11/22 13:49:06;;;;;;;;;;;8.20;94.40;;;;;;5066405;28;19916;-74
2022/11/22 13:51:50;;;;;;;;;;;8.20;94.40;;;;;;5083979;27;19913;-73
2022/11/22 13:54:31;;;;;;;;;;;8.20;94.40;;;;;;5066927;28;19962;-74
2022/11/22 13:57:04;;;;;;;;;;;8.20;94.40;;;;;;5064260;28;20365;-74
2022/11/22 13:59:30;;;;;;;;;;;8.20;94.40;;;;;;5064873;28;19913;-74
2022/11/22 14:01:55;;;;;;;;;;;8.20;94.40;;;;;;5066739;28;19913;-74
2022/11/22 14:04:24;;;;;;;;;;;8.20;94.50;;;;;;5066856;28;19946;-74
2022/11/22 14:06:49;;;;;;;;;;;8.20;94.50;;;;;;5064553;28;19920;-74
2022/11/22 14:09:23;;;;;;;;;;;8.20;94.50;;;;;;5046893;28;19920;-74
2022/11/22 14:12:01;;;;;;;;;;;8.20;94.50;;;;;;5046762;28;19921;-73
2022/11/22 14:14:37;;;;;;;;;;;8.10;94.50;;;;;;5045984;28;19912;-74
2022/11/22 14:17:05;;;;;;;;;;;8.20;94.60;;;;;;5046768;28;19913;-74
2022/11/22 14:19:33;;;;;;;;;;;8.10;94.60;;;;;;5046656;28;19913;-74
2022/11/22 14:22:08;;;;;;;;;;;8.10;94.60;;;;;;5051498;28;19962;-74
2022/11/22 14:24:52;;;;;;;;;;;8.10;94.60;;;;;;5066674;28;20369;-74
2022/11/22 14:27:26;;;;;;;;;;;8.10;94.60;;;;;;5066561;28;19916;-74
2022/11/22 14:30:21;;;;;;;;;;;8.10;94.60;;;;;;5064905;28;19912;-73
2022/11/22 14:32:54;;;;;;;;;;;8.10;94.60;;;;;;5061571;28;20628;-74
2022/11/22 14:35:24;;;;;;;;;;;8.10;95.00;;;;;;5065483;28;19920;-74
2022/11/22 14:38:10;;;;;;;;;;;8.10;94.70;;;;;;5066470;28;20381;-74
2022/11/22 14:40:35;;;;;;;;;;;8.10;94.70;;;;;;5055036;28;19970;-74
2022/11/22 14:43:21;;;;;;;;;;;8.10;94.70;;;;;;5052359;28;20341;-73
2022/11/22 14:45:49;;;;;;;;;;;8.10;94.70;;;;;;5065943;28;19916;-73
2022/11/22 14:48:14;;;;;;;;;;;8.10;94.70;;;;;;5066214;28;19912;-74
2022/11/22 14:50:47;;;;;;;;;;;8.10;94.70;;;;;;5065641;28;20411;-74